sensor_id;sensor_type;location;lat;lon;timestamp;P1;durP1;ratioP1;P2;durP2;ratioP2
68234;SDS011;55052;52.056;5.296;2022-12-05T00:03:44;42.10;;;19.52;;
68234;SDS011;55052;52.056;5.296;2022-12-05T00:06:12;41.10;;;21.27;;
68234;SDS011;55052;52.056;5.296;2022-12-05T00:08:40;41.78;;;21.60;;
68234;SDS011;55052;52.056;5.296;2022-12-05T00:11:13;39.30;;;19.85;;
68234;SDS011;55052;52.056;5.296;2022-12-05T00:13:45;40.60;;;19.75;;
68234;SDS011;55052;52.056;5.296;2022-12-05T00:16:13;42.28;;;20.52;;
68234;SDS011;55052;52.056;5.296;2022-12-05T00:18:42;40.30;;;19.80;;
68234;SDS011;55052;52.056;5.296;2022-12-05T00:21:13;39.67;;;19.75;;
68234;SDS011;55052;52.056;5.296;2022-12-05T00:23:41;37.38;;;18.63;;
68234;SDS011;55052;52.056;5.296;2022-12-05T00:26:09;39.85;;;19.52;;
68234;SDS011;55052;52.056;5.296;2022-12-05T00:28:36;42.50;;;19.05;;
68234;SDS011;55052;52.056;5.296;2022-12-05T00:31:07;40.90;;;19.65;;
68234;SDS011;55052;52.056;5.296;2022-12-05T00:34:02;38.70;;;19.25;;
68234;SDS011;55052;52.056;5.296;2022-12-05T00:36:29;42.65;;;19.88;;
68234;SDS011;55052;52.056;5.296;2022-12-05T00:38:59;36.17;;;19.00;;
68234;SDS011;55052;52.056;5.296;2022-12-05T00:41:29;40.53;;;19.55;;
68234;SDS011;55052;52.056;5.296;2022-12-05T00:43:57;41.45;;;20.42;;
68234;SDS011;55052;52.056;5.296;2022-12-05T00:46:26;37.33;;;19.33;;
68234;SDS011;55052;52.056;5.296;2022-12-05T00:48:55;40.10;;;19.95;;
68234;SDS011;55052;52.056;5.296;2022-12-05T00:51:27;38.22;;;19.27;;
68234;SDS011;55052;52.056;5.296;2022-12-05T00:53:57;40.53;;;19.50;;
68234;SDS011;55052;52.056;5.296;2022-12-05T00:56:26;38.28;;;19.02;;
68234;SDS011;55052;52.056;5.296;2022-12-05T00:58:54;43.33;;;19.10;;
68234;SDS011;55052;52.056;5.296;2022-12-05T01:03:56;40.63;;;19.17;;
68234;SDS011;55052;52.056;5.296;2022-12-05T01:06:24;40.13;;;19.17;;
68234;SDS011;55052;52.056;5.296;2022-12-05T01:08:53;39.97;;;20.10;;
68234;SDS011;55052;52.056;5.296;2022-12-05T01:11:21;39.55;;;18.10;;
68234;SDS011;55052;52.056;5.296;2022-12-05T01:13:48;41.47;;;20.05;;
68234;SDS011;55052;52.056;5.296;2022-12-05T01:16:16;36.53;;;18.08;;
68234;SDS011;55052;52.056;5.296;2022-12-05T01:18:45;40.03;;;20.48;;
68234;SDS011;55052;52.056;5.296;2022-12-05T01:21:12;39.25;;;19.17;;
68234;SDS011;55052;52.056;5.296;2022-12-05T01:23:39;36.85;;;19.40;;
68234;SDS011;55052;52.056;5.296;2022-12-05T01:26:07;39.28;;;19.42;;
68234;SDS011;55052;52.056;5.296;2022-12-05T01:28:35;36.90;;;18.08;;
68234;SDS011;55052;52.056;5.296;2022-12-05T01:31:03;40.75;;;21.10;;
68234;SDS011;55052;52.056;5.296;2022-12-05T01:33:34;43.22;;;20.02;;
68234;SDS011;55052;52.056;5.296;2022-12-05T01:36:01;36.75;;;18.10;;
68234;SDS011;55052;52.056;5.296;2022-12-05T01:38:29;35.33;;;18.23;;
68234;SDS011;55052;52.056;5.296;2022-12-05T01:41:00;38.22;;;19.67;;
68234;SDS011;55052;52.056;5.296;2022-12-05T01:43:31;38.00;;;18.52;;
68234;SDS011;55052;52.056;5.296;2022-12-05T01:45:58;41.47;;;19.30;;
68234;SDS011;55052;52.056;5.296;2022-12-05T01:48:29;37.22;;;19.38;;
68234;SDS011;55052;52.056;5.296;2022-12-05T01:50:59;37.75;;;20.23;;
68234;SDS011;55052;52.056;5.296;2022-12-05T01:53:27;42.88;;;19.33;;
68234;SDS011;55052;52.056;5.296;2022-12-05T01:55:55;39.63;;;18.65;;
68234;SDS011;55052;52.056;5.296;2022-12-05T01:58:23;38.03;;;19.20;;
68234;SDS011;55052;52.056;5.296;2022-12-05T02:00:55;37.30;;;18.80;;
68234;SDS011;55052;52.056;5.296;2022-12-05T02:03:21;37.35;;;18.35;;
68234;SDS011;55052;52.056;5.296;2022-12-05T02:05:49;37.03;;;18.75;;
68234;SDS011;55052;52.056;5.296;2022-12-05T02:08:18;39.60;;;19.80;;
68234;SDS011;55052;52.056;5.296;2022-12-05T02:10:50;37.50;;;19.00;;
68234;SDS011;55052;52.056;5.296;2022-12-05T02:13:28;37.17;;;19.20;;
68234;SDS011;55052;52.056;5.296;2022-12-05T02:18:59;34.90;;;18.33;;
68234;SDS011;55052;52.056;5.296;2022-12-05T02:27:33;41.03;;;19.47;;
68234;SDS011;55052;52.056;5.296;2022-12-05T02:37:41;41.78;;;19.85;;
68234;SDS011;55052;52.056;5.296;2022-12-05T02:43:02;38.05;;;18.60;;
68234;SDS011;55052;52.056;5.296;2022-12-05T02:45:35;39.45;;;19.08;;
68234;SDS011;55052;52.056;5.296;2022-12-05T02:48:03;37.55;;;18.70;;
68234;SDS011;55052;52.056;5.296;2022-12-05T02:50:32;36.58;;;18.50;;
68234;SDS011;55052;52.056;5.296;2022-12-05T02:55:36;32.53;;;16.85;;
68234;SDS011;55052;52.056;5.296;2022-12-05T02:58:06;37.92;;;17.67;;
68234;SDS011;55052;52.056;5.296;2022-12-05T03:00:41;37.83;;;18.10;;
68234;SDS011;55052;52.056;5.296;2022-12-05T03:03:11;34.92;;;18.13;;
68234;SDS011;55052;52.056;5.296;2022-12-05T03:08:24;36.85;;;18.88;;
68234;SDS011;55052;52.056;5.296;2022-12-05T03:10:53;31.45;;;16.85;;
68234;SDS011;55052;52.056;5.296;2022-12-05T03:13:24;36.63;;;19.05;;
68234;SDS011;55052;52.056;5.296;2022-12-05T03:15:57;33.13;;;17.85;;
68234;SDS011;55052;52.056;5.296;2022-12-05T03:18:28;35.22;;;17.60;;
68234;SDS011;55052;52.056;5.296;2022-12-05T03:21:06;37.42;;;17.98;;
68234;SDS011;55052;52.056;5.296;2022-12-05T03:23:44;35.72;;;18.13;;
68234;SDS011;55052;52.056;5.296;2022-12-05T03:29:44;31.35;;;17.33;;
68234;SDS011;55052;52.056;5.296;2022-12-05T03:35:22;30.23;;;16.42;;
68234;SDS011;55052;52.056;5.296;2022-12-05T03:38:10;33.70;;;17.33;;
68234;SDS011;55052;52.056;5.296;2022-12-05T03:40:55;33.35;;;17.48;;
68234;SDS011;55052;52.056;5.296;2022-12-05T03:43:44;34.00;;;17.70;;
68234;SDS011;55052;52.056;5.296;2022-12-05T03:46:26;31.85;;;16.13;;
68234;SDS011;55052;52.056;5.296;2022-12-05T03:49:02;30.88;;;15.98;;
68234;SDS011;55052;52.056;5.296;2022-12-05T03:52:04;35.42;;;17.10;;
68234;SDS011;55052;52.056;5.296;2022-12-05T03:54:54;30.63;;;15.80;;
68234;SDS011;55052;52.056;5.296;2022-12-05T03:57:36;29.85;;;16.35;;
68234;SDS011;55052;52.056;5.296;2022-12-05T04:00:20;30.95;;;16.80;;
68234;SDS011;55052;52.056;5.296;2022-12-05T04:02:52;36.53;;;16.73;;
68234;SDS011;55052;52.056;5.296;2022-12-05T04:08:22;32.20;;;16.98;;
68234;SDS011;55052;52.056;5.296;2022-12-05T04:10:57;30.73;;;15.70;;
68234;SDS011;55052;52.056;5.296;2022-12-05T04:13:47;37.55;;;17.00;;
68234;SDS011;55052;52.056;5.296;2022-12-05T04:16:19;32.17;;;16.48;;
68234;SDS011;55052;52.056;5.296;2022-12-05T04:19:11;31.20;;;16.98;;
68234;SDS011;55052;52.056;5.296;2022-12-05T04:22:20;32.00;;;15.98;;
68234;SDS011;55052;52.056;5.296;2022-12-05T04:24:47;32.65;;;16.17;;
68234;SDS011;55052;52.056;5.296;2022-12-05T04:30:08;31.25;;;15.65;;
68234;SDS011;55052;52.056;5.296;2022-12-05T04:35:13;30.58;;;16.55;;
68234;SDS011;55052;52.056;5.296;2022-12-05T04:37:44;31.25;;;15.43;;
68234;SDS011;55052;52.056;5.296;2022-12-05T04:40:19;32.15;;;16.52;;
68234;SDS011;55052;52.056;5.296;2022-12-05T04:42:51;31.38;;;16.42;;
68234;SDS011;55052;52.056;5.296;2022-12-05T04:45:20;31.33;;;16.00;;
68234;SDS011;55052;52.056;5.296;2022-12-05T04:47:50;28.33;;;15.37;;
68234;SDS011;55052;52.056;5.296;2022-12-05T04:50:26;29.73;;;15.13;;
68234;SDS011;55052;52.056;5.296;2022-12-05T04:52:56;32.95;;;16.52;;
68234;SDS011;55052;52.056;5.296;2022-12-05T04:55:25;31.85;;;15.38;;
68234;SDS011;55052;52.056;5.296;2022-12-05T05:00:31;28.70;;;15.55;;
68234;SDS011;55052;52.056;5.296;2022-12-05T05:03:12;26.63;;;15.52;;
68234;SDS011;55052;52.056;5.296;2022-12-05T05:05:48;28.30;;;15.30;;
68234;SDS011;55052;52.056;5.296;2022-12-05T05:08:18;31.60;;;16.75;;
68234;SDS011;55052;52.056;5.296;2022-12-05T05:10:51;29.37;;;15.23;;
68234;SDS011;55052;52.056;5.296;2022-12-05T05:13:28;28.58;;;15.15;;
68234;SDS011;55052;52.056;5.296;2022-12-05T05:15:55;27.85;;;14.77;;
68234;SDS011;55052;52.056;5.296;2022-12-05T05:18:21;29.95;;;14.70;;
68234;SDS011;55052;52.056;5.296;2022-12-05T05:20:48;28.33;;;14.77;;
68234;SDS011;55052;52.056;5.296;2022-12-05T05:23:15;27.77;;;14.82;;
68234;SDS011;55052;52.056;5.296;2022-12-05T05:25:41;30.58;;;16.20;;
68234;SDS011;55052;52.056;5.296;2022-12-05T05:28:08;27.95;;;14.98;;
68234;SDS011;55052;52.056;5.296;2022-12-05T05:30:35;28.38;;;14.93;;
68234;SDS011;55052;52.056;5.296;2022-12-05T05:33:01;30.85;;;15.88;;
68234;SDS011;55052;52.056;5.296;2022-12-05T05:35:28;32.10;;;16.33;;
68234;SDS011;55052;52.056;5.296;2022-12-05T05:37:55;30.58;;;16.80;;
68234;SDS011;55052;52.056;5.296;2022-12-05T05:40:22;30.52;;;16.63;;
68234;SDS011;55052;52.056;5.296;2022-12-05T05:42:49;31.10;;;16.48;;
68234;SDS011;55052;52.056;5.296;2022-12-05T05:45:16;27.02;;;15.13;;
68234;SDS011;55052;52.056;5.296;2022-12-05T05:47:43;28.40;;;16.17;;
68234;SDS011;55052;52.056;5.296;2022-12-05T05:50:10;29.90;;;15.80;;
68234;SDS011;55052;52.056;5.296;2022-12-05T05:52:46;30.60;;;15.70;;
68234;SDS011;55052;52.056;5.296;2022-12-05T05:55:12;29.80;;;16.13;;
68234;SDS011;55052;52.056;5.296;2022-12-05T05:57:39;29.65;;;15.68;;
68234;SDS011;55052;52.056;5.296;2022-12-05T06:00:06;29.10;;;16.15;;
68234;SDS011;55052;52.056;5.296;2022-12-05T06:02:34;31.17;;;15.43;;
68234;SDS011;55052;52.056;5.296;2022-12-05T06:05:01;30.67;;;16.25;;
68234;SDS011;55052;52.056;5.296;2022-12-05T06:07:28;30.38;;;16.10;;
68234;SDS011;55052;52.056;5.296;2022-12-05T06:09:56;31.13;;;16.10;;
68234;SDS011;55052;52.056;5.296;2022-12-05T06:12:23;31.33;;;16.30;;
68234;SDS011;55052;52.056;5.296;2022-12-05T06:14:50;28.10;;;15.65;;
68234;SDS011;55052;52.056;5.296;2022-12-05T06:17:16;31.00;;;16.20;;
68234;SDS011;55052;52.056;5.296;2022-12-05T06:19:43;29.35;;;15.98;;
68234;SDS011;55052;52.056;5.296;2022-12-05T06:22:10;32.28;;;16.67;;
68234;SDS011;55052;52.056;5.296;2022-12-05T06:24:37;29.67;;;15.77;;
68234;SDS011;55052;52.056;5.296;2022-12-05T06:27:03;36.25;;;17.20;;
68234;SDS011;55052;52.056;5.296;2022-12-05T06:29:30;31.92;;;15.88;;
68234;SDS011;55052;52.056;5.296;2022-12-05T06:31:59;31.85;;;16.85;;
68234;SDS011;55052;52.056;5.296;2022-12-05T06:34:27;29.80;;;15.98;;
68234;SDS011;55052;52.056;5.296;2022-12-05T06:36:55;27.02;;;15.55;;
68234;SDS011;55052;52.056;5.296;2022-12-05T06:39:21;34.63;;;16.25;;
68234;SDS011;55052;52.056;5.296;2022-12-05T06:41:48;30.85;;;16.42;;
68234;SDS011;55052;52.056;5.296;2022-12-05T06:44:15;29.10;;;15.85;;
68234;SDS011;55052;52.056;5.296;2022-12-05T06:46:42;30.73;;;15.43;;
68234;SDS011;55052;52.056;5.296;2022-12-05T06:49:08;31.15;;;16.15;;
68234;SDS011;55052;52.056;5.296;2022-12-05T06:51:35;27.65;;;15.60;;
68234;SDS011;55052;52.056;5.296;2022-12-05T06:54:02;26.95;;;15.77;;
68234;SDS011;55052;52.056;5.296;2022-12-05T06:56:29;28.75;;;15.27;;
68234;SDS011;55052;52.056;5.296;2022-12-05T06:58:56;29.55;;;15.63;;
68234;SDS011;55052;52.056;5.296;2022-12-05T07:01:23;32.33;;;16.30;;
68234;SDS011;55052;52.056;5.296;2022-12-05T07:04:10;31.48;;;16.55;;
68234;SDS011;55052;52.056;5.296;2022-12-05T07:06:41;29.90;;;15.05;;
68234;SDS011;55052;52.056;5.296;2022-12-05T07:09:15;30.70;;;15.15;;
68234;SDS011;55052;52.056;5.296;2022-12-05T07:11:47;31.52;;;15.68;;
68234;SDS011;55052;52.056;5.296;2022-12-05T07:14:15;28.20;;;15.25;;
68234;SDS011;55052;52.056;5.296;2022-12-05T07:17:02;29.67;;;15.98;;
68234;SDS011;55052;52.056;5.296;2022-12-05T07:19:29;27.95;;;15.20;;
68234;SDS011;55052;52.056;5.296;2022-12-05T07:21:56;32.85;;;16.20;;
68234;SDS011;55052;52.056;5.296;2022-12-05T07:24:23;31.10;;;15.55;;
68234;SDS011;55052;52.056;5.296;2022-12-05T07:26:50;28.95;;;15.00;;
68234;SDS011;55052;52.056;5.296;2022-12-05T07:29:17;30.77;;;15.50;;
68234;SDS011;55052;52.056;5.296;2022-12-05T07:31:44;29.70;;;15.05;;
68234;SDS011;55052;52.056;5.296;2022-12-05T07:34:10;33.45;;;16.67;;
68234;SDS011;55052;52.056;5.296;2022-12-05T07:36:38;28.63;;;16.08;;
68234;SDS011;55052;52.056;5.296;2022-12-05T07:39:05;33.10;;;16.15;;
68234;SDS011;55052;52.056;5.296;2022-12-05T07:41:32;29.05;;;14.68;;
68234;SDS011;55052;52.056;5.296;2022-12-05T07:44:00;32.53;;;17.02;;
68234;SDS011;55052;52.056;5.296;2022-12-05T07:46:28;32.22;;;16.48;;
68234;SDS011;55052;52.056;5.296;2022-12-05T07:48:55;30.80;;;15.57;;
68234;SDS011;55052;52.056;5.296;2022-12-05T07:51:21;31.10;;;15.73;;
68234;SDS011;55052;52.056;5.296;2022-12-05T07:53:49;34.92;;;15.75;;
68234;SDS011;55052;52.056;5.296;2022-12-05T07:56:16;35.28;;;16.30;;
68234;SDS011;55052;52.056;5.296;2022-12-05T07:58:44;32.92;;;15.88;;
68234;SDS011;55052;52.056;5.296;2022-12-05T08:01:13;27.50;;;15.10;;
68234;SDS011;55052;52.056;5.296;2022-12-05T08:03:42;32.17;;;15.15;;
68234;SDS011;55052;52.056;5.296;2022-12-05T08:06:16;28.42;;;15.35;;
68234;SDS011;55052;52.056;5.296;2022-12-05T08:08:45;31.05;;;15.75;;
68234;SDS011;55052;52.056;5.296;2022-12-05T08:11:17;33.20;;;16.60;;
68234;SDS011;55052;52.056;5.296;2022-12-05T08:13:45;29.58;;;15.85;;
68234;SDS011;55052;52.056;5.296;2022-12-05T08:16:14;29.20;;;15.65;;
68234;SDS011;55052;52.056;5.296;2022-12-05T08:18:42;28.60;;;15.15;;
68234;SDS011;55052;52.056;5.296;2022-12-05T08:21:10;29.88;;;14.65;;
68234;SDS011;55052;52.056;5.296;2022-12-05T08:23:39;29.27;;;15.73;;
68234;SDS011;55052;52.056;5.296;2022-12-05T08:26:07;23.67;;;14.35;;
68234;SDS011;55052;52.056;5.296;2022-12-05T08:28:42;24.45;;;13.85;;
68234;SDS011;55052;52.056;5.296;2022-12-05T08:31:13;24.13;;;14.02;;
68234;SDS011;55052;52.056;5.296;2022-12-05T08:33:42;26.48;;;13.63;;
68234;SDS011;55052;52.056;5.296;2022-12-05T08:36:11;24.42;;;13.48;;
68234;SDS011;55052;52.056;5.296;2022-12-05T08:38:40;24.55;;;13.35;;
68234;SDS011;55052;52.056;5.296;2022-12-05T08:41:09;27.38;;;13.82;;
68234;SDS011;55052;52.056;5.296;2022-12-05T08:43:37;23.92;;;13.20;;
68234;SDS011;55052;52.056;5.296;2022-12-05T08:46:04;26.73;;;14.10;;
68234;SDS011;55052;52.056;5.296;2022-12-05T08:48:32;26.40;;;14.55;;
68234;SDS011;55052;52.056;5.296;2022-12-05T08:51:03;30.05;;;14.02;;
68234;SDS011;55052;52.056;5.296;2022-12-05T08:53:35;25.38;;;14.50;;
68234;SDS011;55052;52.056;5.296;2022-12-05T08:56:09;25.10;;;13.63;;
68234;SDS011;55052;52.056;5.296;2022-12-05T08:58:36;25.13;;;13.82;;
68234;SDS011;55052;52.056;5.296;2022-12-05T09:01:09;23.42;;;13.18;;
68234;SDS011;55052;52.056;5.296;2022-12-05T09:03:38;23.15;;;13.38;;
68234;SDS011;55052;52.056;5.296;2022-12-05T09:06:14;25.92;;;13.40;;
68234;SDS011;55052;52.056;5.296;2022-12-05T09:08:45;28.77;;;13.88;;
68234;SDS011;55052;52.056;5.296;2022-12-05T09:11:13;23.52;;;12.73;;
68234;SDS011;55052;52.056;5.296;2022-12-05T09:13:42;29.23;;;13.07;;
68234;SDS011;55052;52.056;5.296;2022-12-05T09:16:13;20.63;;;12.55;;
68234;SDS011;55052;52.056;5.296;2022-12-05T09:18:42;22.88;;;12.95;;
68234;SDS011;55052;52.056;5.296;2022-12-05T09:21:10;25.48;;;13.48;;
68234;SDS011;55052;52.056;5.296;2022-12-05T09:23:39;25.42;;;12.73;;
68234;SDS011;55052;52.056;5.296;2022-12-05T09:26:08;24.15;;;13.07;;
68234;SDS011;55052;52.056;5.296;2022-12-05T09:28:37;26.77;;;12.75;;
68234;SDS011;55052;52.056;5.296;2022-12-05T09:31:06;24.65;;;13.73;;
68234;SDS011;55052;52.056;5.296;2022-12-05T09:33:35;23.23;;;12.85;;
68234;SDS011;55052;52.056;5.296;2022-12-05T09:36:22;21.25;;;12.15;;
68234;SDS011;55052;52.056;5.296;2022-12-05T09:38:50;24.52;;;13.50;;
68234;SDS011;55052;52.056;5.296;2022-12-05T09:49:59;20.30;;;11.73;;
68234;SDS011;55052;52.056;5.296;2022-12-05T09:52:40;19.38;;;11.63;;
68234;SDS011;55052;52.056;5.296;2022-12-05T09:55:37;20.90;;;11.68;;
68234;SDS011;55052;52.056;5.296;2022-12-05T09:58:21;21.17;;;13.18;;
68234;SDS011;55052;52.056;5.296;2022-12-05T10:04:13;18.38;;;12.30;;
68234;SDS011;55052;52.056;5.296;2022-12-05T10:09:24;21.77;;;11.23;;
68234;SDS011;55052;52.056;5.296;2022-12-05T10:15:18;15.35;;;9.73;;
68234;SDS011;55052;52.056;5.296;2022-12-05T10:17:57;21.98;;;10.77;;
68234;SDS011;55052;52.056;5.296;2022-12-05T10:20:28;17.40;;;10.18;;
68234;SDS011;55052;52.056;5.296;2022-12-05T10:23:02;16.75;;;9.98;;
68234;SDS011;55052;52.056;5.296;2022-12-05T10:25:56;16.27;;;9.80;;
68234;SDS011;55052;52.056;5.296;2022-12-05T10:31:07;17.43;;;10.10;;
68234;SDS011;55052;52.056;5.296;2022-12-05T10:33:38;21.45;;;10.30;;
68234;SDS011;55052;52.056;5.296;2022-12-05T10:36:09;16.38;;;10.15;;
68234;SDS011;55052;52.056;5.296;2022-12-05T10:38:36;17.05;;;10.38;;
68234;SDS011;55052;52.056;5.296;2022-12-05T10:41:05;14.55;;;9.32;;
68234;SDS011;55052;52.056;5.296;2022-12-05T10:43:34;17.88;;;10.73;;
68234;SDS011;55052;52.056;5.296;2022-12-05T10:46:03;16.92;;;10.27;;
68234;SDS011;55052;52.056;5.296;2022-12-05T10:48:34;17.15;;;10.00;;
68234;SDS011;55052;52.056;5.296;2022-12-05T10:51:03;19.80;;;9.65;;
68234;SDS011;55052;52.056;5.296;2022-12-05T10:53:38;23.27;;;9.95;;
68234;SDS011;55052;52.056;5.296;2022-12-05T10:59:07;21.48;;;10.05;;
68234;SDS011;55052;52.056;5.296;2022-12-05T11:01:37;15.25;;;9.85;;
68234;SDS011;55052;52.056;5.296;2022-12-05T11:04:12;16.63;;;9.60;;
68234;SDS011;55052;52.056;5.296;2022-12-05T11:06:55;16.42;;;9.43;;
68234;SDS011;55052;52.056;5.296;2022-12-05T11:09:30;13.45;;;8.75;;
68234;SDS011;55052;52.056;5.296;2022-12-05T11:12:20;12.48;;;8.10;;
68234;SDS011;55052;52.056;5.296;2022-12-05T11:17:28;16.83;;;9.07;;
68234;SDS011;55052;52.056;5.296;2022-12-05T11:20:13;13.48;;;8.13;;
68234;SDS011;55052;52.056;5.296;2022-12-05T11:22:50;10.98;;;6.93;;
68234;SDS011;55052;52.056;5.296;2022-12-05T11:27:53;11.07;;;6.05;;
68234;SDS011;55052;52.056;5.296;2022-12-05T11:30:27;8.60;;;5.47;;
68234;SDS011;55052;52.056;5.296;2022-12-05T11:33:14;11.88;;;5.63;;
68234;SDS011;55052;52.056;5.296;2022-12-05T11:38:13;9.68;;;4.55;;
68234;SDS011;55052;52.056;5.296;2022-12-05T11:44:00;9.70;;;4.75;;
68234;SDS011;55052;52.056;5.296;2022-12-05T11:49:10;9.93;;;4.87;;
68234;SDS011;55052;52.056;5.296;2022-12-05T11:54:55;7.25;;;4.70;;
68234;SDS011;55052;52.056;5.296;2022-12-05T12:00:23;10.25;;;5.00;;
68234;SDS011;55052;52.056;5.296;2022-12-05T12:09:00;8.32;;;5.03;;
68234;SDS011;55052;52.056;5.296;2022-12-05T12:14:36;9.40;;;4.63;;
68234;SDS011;55052;52.056;5.296;2022-12-05T12:17:24;7.70;;;4.85;;
68234;SDS011;55052;52.056;5.296;2022-12-05T12:33:38;8.45;;;4.47;;
68234;SDS011;55052;52.056;5.296;2022-12-05T12:46:49;6.68;;;4.15;;
68234;SDS011;55052;52.056;5.296;2022-12-05T12:49:32;7.18;;;4.25;;
68234;SDS011;55052;52.056;5.296;2022-12-05T12:52:14;10.35;;;5.10;;
68234;SDS011;55052;52.056;5.296;2022-12-05T13:01:05;8.30;;;4.20;;
68234;SDS011;55052;52.056;5.296;2022-12-05T13:04:21;6.82;;;3.85;;
68234;SDS011;55052;52.056;5.296;2022-12-05T13:07:22;6.65;;;3.78;;
68234;SDS011;55052;52.056;5.296;2022-12-05T13:09:55;7.47;;;3.80;;
68234;SDS011;55052;52.056;5.296;2022-12-05T13:12:28;6.63;;;3.90;;
68234;SDS011;55052;52.056;5.296;2022-12-05T13:15:13;8.00;;;4.22;;
68234;SDS011;55052;52.056;5.296;2022-12-05T13:17:44;6.80;;;3.55;;
68234;SDS011;55052;52.056;5.296;2022-12-05T13:20:15;7.10;;;3.88;;
68234;SDS011;55052;52.056;5.296;2022-12-05T13:22:45;7.35;;;3.80;;
68234;SDS011;55052;52.056;5.296;2022-12-05T13:25:14;7.10;;;3.90;;
68234;SDS011;55052;52.056;5.296;2022-12-05T13:30:51;7.07;;;4.20;;
68234;SDS011;55052;52.056;5.296;2022-12-05T13:33:49;7.78;;;4.10;;
68234;SDS011;55052;52.056;5.296;2022-12-05T13:36:17;6.90;;;3.88;;
68234;SDS011;55052;52.056;5.296;2022-12-05T13:39:12;7.88;;;4.10;;
68234;SDS011;55052;52.056;5.296;2022-12-05T13:42:05;11.90;;;4.18;;
68234;SDS011;55052;52.056;5.296;2022-12-05T13:44:47;7.88;;;3.88;;
68234;SDS011;55052;52.056;5.296;2022-12-05T13:47:31;6.05;;;3.60;;
68234;SDS011;55052;52.056;5.296;2022-12-05T13:52:40;7.75;;;4.28;;
68234;SDS011;55052;52.056;5.296;2022-12-05T13:55:21;8.60;;;3.83;;
68234;SDS011;55052;52.056;5.296;2022-12-05T14:00:45;6.60;;;4.10;;
68234;SDS011;55052;52.056;5.296;2022-12-05T14:06:00;7.30;;;3.88;;
68234;SDS011;55052;52.056;5.296;2022-12-05T14:15:52;6.95;;;3.67;;
68234;SDS011;55052;52.056;5.296;2022-12-05T14:24:37;6.32;;;3.38;;
68234;SDS011;55052;52.056;5.296;2022-12-05T14:27:54;8.05;;;3.50;;
68234;SDS011;55052;52.056;5.296;2022-12-05T14:33:14;6.20;;;3.70;;
68234;SDS011;55052;52.056;5.296;2022-12-05T14:35:47;6.00;;;3.13;;
68234;SDS011;55052;52.056;5.296;2022-12-05T14:38:21;6.50;;;3.58;;
68234;SDS011;55052;52.056;5.296;2022-12-05T14:40:54;6.63;;;3.40;;
68234;SDS011;55052;52.056;5.296;2022-12-05T14:43:32;7.38;;;3.67;;
68234;SDS011;55052;52.056;5.296;2022-12-05T14:46:03;6.15;;;3.75;;
68234;SDS011;55052;52.056;5.296;2022-12-05T14:48:33;9.25;;;4.07;;
68234;SDS011;55052;52.056;5.296;2022-12-05T14:51:56;7.72;;;3.83;;
68234;SDS011;55052;52.056;5.296;2022-12-05T14:54:07;7.07;;;3.80;;
68234;SDS011;55052;52.056;5.296;2022-12-05T14:56:39;7.10;;;3.88;;
68234;SDS011;55052;52.056;5.296;2022-12-05T15:01:53;6.90;;;3.40;;
68234;SDS011;55052;52.056;5.296;2022-12-05T15:10:01;7.05;;;3.45;;
68234;SDS011;55052;52.056;5.296;2022-12-05T15:17:43;6.57;;;3.70;;
68234;SDS011;55052;52.056;5.296;2022-12-05T15:20:15;7.60;;;4.07;;
68234;SDS011;55052;52.056;5.296;2022-12-05T15:22:47;9.05;;;4.38;;
68234;SDS011;55052;52.056;5.296;2022-12-05T15:25:24;8.23;;;4.07;;
68234;SDS011;55052;52.056;5.296;2022-12-05T15:28:00;6.97;;;3.78;;
68234;SDS011;55052;52.056;5.296;2022-12-05T15:30:32;8.60;;;4.10;;
68234;SDS011;55052;52.056;5.296;2022-12-05T15:33:02;6.68;;;3.78;;
68234;SDS011;55052;52.056;5.296;2022-12-05T15:35:30;6.50;;;3.80;;
68234;SDS011;55052;52.056;5.296;2022-12-05T15:38:01;6.70;;;3.95;;
68234;SDS011;55052;52.056;5.296;2022-12-05T15:40:38;6.40;;;3.80;;
68234;SDS011;55052;52.056;5.296;2022-12-05T15:43:26;8.13;;;3.47;;
68234;SDS011;55052;52.056;5.296;2022-12-05T15:48:54;6.80;;;3.80;;
68234;SDS011;55052;52.056;5.296;2022-12-05T15:51:24;7.65;;;4.30;;
68234;SDS011;55052;52.056;5.296;2022-12-05T15:56:58;6.13;;;3.92;;
68234;SDS011;55052;52.056;5.296;2022-12-05T15:59:35;6.10;;;3.67;;
68234;SDS011;55052;52.056;5.296;2022-12-05T16:02:38;7.07;;;3.95;;
68234;SDS011;55052;52.056;5.296;2022-12-05T16:05:17;6.60;;;3.60;;
68234;SDS011;55052;52.056;5.296;2022-12-05T16:08:00;7.18;;;3.95;;
68234;SDS011;55052;52.056;5.296;2022-12-05T16:10:28;9.75;;;4.03;;
68234;SDS011;55052;52.056;5.296;2022-12-05T16:13:00;7.10;;;4.18;;
68234;SDS011;55052;52.056;5.296;2022-12-05T16:15:32;7.07;;;3.85;;
68234;SDS011;55052;52.056;5.296;2022-12-05T16:18:00;6.32;;;3.90;;
68234;SDS011;55052;52.056;5.296;2022-12-05T16:20:32;8.68;;;4.30;;
68234;SDS011;55052;52.056;5.296;2022-12-05T16:23:02;9.68;;;4.57;;
68234;SDS011;55052;52.056;5.296;2022-12-05T16:25:48;7.70;;;4.22;;
68234;SDS011;55052;52.056;5.296;2022-12-05T16:28:16;7.63;;;4.50;;
68234;SDS011;55052;52.056;5.296;2022-12-05T16:31:00;9.02;;;5.68;;
68234;SDS011;55052;52.056;5.296;2022-12-05T16:33:28;9.10;;;5.65;;
68234;SDS011;55052;52.056;5.296;2022-12-05T16:36:06;9.38;;;6.25;;
68234;SDS011;55052;52.056;5.296;2022-12-05T16:38:37;10.13;;;4.72;;
68234;SDS011;55052;52.056;5.296;2022-12-05T16:41:06;7.05;;;4.57;;
68234;SDS011;55052;52.056;5.296;2022-12-05T16:48:41;8.80;;;4.57;;
68234;SDS011;55052;52.056;5.296;2022-12-05T16:53:40;8.95;;;5.82;;
68234;SDS011;55052;52.056;5.296;2022-12-05T16:56:10;9.35;;;5.78;;
68234;SDS011;55052;52.056;5.296;2022-12-05T16:58:40;9.15;;;5.72;;
68234;SDS011;55052;52.056;5.296;2022-12-05T17:01:21;8.20;;;5.70;;
68234;SDS011;55052;52.056;5.296;2022-12-05T17:03:50;9.55;;;5.70;;
68234;SDS011;55052;52.056;5.296;2022-12-05T17:06:19;8.10;;;5.65;;
68234;SDS011;55052;52.056;5.296;2022-12-05T17:08:48;9.88;;;5.93;;
68234;SDS011;55052;52.056;5.296;2022-12-05T17:11:16;8.93;;;6.32;;
68234;SDS011;55052;52.056;5.296;2022-12-05T17:13:49;8.45;;;5.40;;
68234;SDS011;55052;52.056;5.296;2022-12-05T17:16:17;8.90;;;5.10;;
68234;SDS011;55052;52.056;5.296;2022-12-05T17:18:46;10.32;;;5.60;;
68234;SDS011;55052;52.056;5.296;2022-12-05T17:21:14;7.70;;;4.80;;
68234;SDS011;55052;52.056;5.296;2022-12-05T17:23:43;13.95;;;5.82;;
68234;SDS011;55052;52.056;5.296;2022-12-05T17:26:13;9.75;;;6.13;;
68234;SDS011;55052;52.056;5.296;2022-12-05T17:28:42;10.80;;;5.57;;
68234;SDS011;55052;52.056;5.296;2022-12-05T17:31:10;8.55;;;5.60;;
68234;SDS011;55052;52.056;5.296;2022-12-05T17:33:39;9.55;;;5.22;;
68234;SDS011;55052;52.056;5.296;2022-12-05T17:36:07;10.65;;;5.57;;
68234;SDS011;55052;52.056;5.296;2022-12-05T17:38:34;11.45;;;5.35;;
68234;SDS011;55052;52.056;5.296;2022-12-05T17:41:01;8.48;;;4.95;;
68234;SDS011;55052;52.056;5.296;2022-12-05T17:43:32;12.00;;;5.55;;
68234;SDS011;55052;52.056;5.296;2022-12-05T17:46:00;9.95;;;5.25;;
68234;SDS011;55052;52.056;5.296;2022-12-05T17:48:27;10.25;;;5.22;;
68234;SDS011;55052;52.056;5.296;2022-12-05T17:50:54;12.20;;;5.97;;
68234;SDS011;55052;52.056;5.296;2022-12-05T17:53:23;14.63;;;5.77;;
68234;SDS011;55052;52.056;5.296;2022-12-05T17:55:50;8.15;;;5.13;;
68234;SDS011;55052;52.056;5.296;2022-12-05T17:58:17;9.13;;;5.10;;
68234;SDS011;55052;52.056;5.296;2022-12-05T18:00:44;9.13;;;5.00;;
68234;SDS011;55052;52.056;5.296;2022-12-05T18:03:13;11.02;;;5.38;;
68234;SDS011;55052;52.056;5.296;2022-12-05T18:05:42;9.35;;;5.10;;